createdAt,value
2018-12-03T00:01:18.942Z,3.96
2018-12-03T00:03:53.740Z,3.61
2018-12-03T00:06:24.544Z,3.29
2018-12-03T00:08:56.014Z,3.18
2018-12-03T00:11:26.667Z,3.30
2018-12-03T00:13:58.069Z,3.26
2018-12-03T00:16:32.018Z,3.21
2018-12-03T00:19:02.733Z,3.38
2018-12-03T00:21:34.273Z,3.49
2018-12-03T00:24:06.358Z,3.63
2018-12-03T00:26:37.665Z,3.53
2018-12-03T00:29:08.568Z,3.94
2018-12-03T00:31:39.663Z,3.82
2018-12-03T00:34:11.667Z,3.63
2018-12-03T00:36:42.362Z,3.60
2018-12-03T00:39:13.228Z,3.14
2018-12-03T00:41:44.663Z,3.42
2018-12-03T00:44:16.468Z,3.26
2018-12-03T00:46:47.247Z,3.48
2018-12-03T00:49:18.859Z,3.43
2018-12-03T00:51:49.672Z,3.21
2018-12-03T00:54:22.080Z,3.25
2018-12-03T00:56:52.695Z,3.32
2018-12-03T00:59:23.451Z,3.03
2018-12-03T01:01:55.382Z,3.20
2018-12-03T01:04:26.105Z,3.59
2018-12-03T01:06:57.206Z,4.53
2018-12-03T01:09:28.935Z,4.41
2018-12-03T01:11:59.942Z,4.60
2018-12-03T01:14:30.953Z,4.32
2018-12-03T01:17:02.702Z,4.26
2018-12-03T01:19:33.507Z,4.19
2018-12-03T01:22:04.151Z,4.64
2018-12-03T01:24:34.704Z,5.03
2018-12-03T01:27:06.143Z,5.18
2018-12-03T01:29:37.000Z,4.49
2018-12-03T01:32:08.639Z,4.69
2018-12-03T01:34:39.478Z,4.04
2018-12-03T01:37:11.223Z,4.37
2018-12-03T01:39:45.508Z,3.87
2018-12-03T01:42:16.679Z,3.47
2018-12-03T01:44:47.264Z,3.62
2018-12-03T01:47:18.094Z,3.85
2018-12-03T01:49:49.685Z,3.53
2018-12-03T01:52:20.239Z,3.57
2018-12-03T01:54:54.301Z,3.80
2018-12-03T01:57:24.860Z,3.93
2018-12-03T01:59:55.797Z,3.94
2018-12-03T02:02:26.476Z,3.50
2018-12-03T02:04:57.921Z,3.53
2018-12-03T02:07:28.907Z,3.58
2018-12-03T02:09:59.460Z,3.87
2018-12-03T02:12:31.381Z,4.46
2018-12-03T02:15:01.942Z,4.37
2018-12-03T02:17:34.535Z,4.30
2018-12-03T02:20:08.223Z,4.39
2018-12-03T02:22:38.719Z,4.30
2018-12-03T02:25:10.110Z,4.46
2018-12-03T02:27:43.560Z,4.34
2018-12-03T02:30:23.017Z,4.44
2018-12-03T02:32:56.801Z,3.68
2018-12-03T02:35:32.451Z,3.65
2018-12-03T02:38:05.452Z,3.82
2018-12-03T02:40:36.535Z,4.30
2018-12-03T02:43:09.531Z,3.88
2018-12-03T02:45:41.441Z,4.24
2018-12-03T02:48:15.195Z,4.82
2018-12-03T02:50:47.570Z,4.62
2018-12-03T02:53:20.139Z,4.32
2018-12-03T02:55:51.720Z,4.59
2018-12-03T02:58:22.523Z,4.34
2018-12-03T03:00:55.516Z,4.30
2018-12-03T03:03:26.105Z,3.89
2018-12-03T03:06:02.407Z,3.78
2018-12-03T03:08:35.543Z,3.77
2018-12-03T03:11:07.143Z,3.78
2018-12-03T03:13:38.004Z,3.68
2018-12-03T03:16:08.567Z,3.55
2018-12-03T03:18:39.244Z,3.30
2018-12-03T03:21:09.805Z,3.37
2018-12-03T03:23:40.585Z,3.47
2018-12-03T03:26:11.474Z,3.97
2018-12-03T03:28:41.923Z,4.34
2018-12-03T03:31:12.689Z,3.99
2018-12-03T03:33:43.621Z,3.98
2018-12-03T03:36:14.272Z,4.16
2018-12-03T03:38:44.780Z,3.89
2018-12-03T03:41:15.692Z,3.81
2018-12-03T03:43:45.994Z,3.93
2018-12-03T03:46:16.863Z,3.97
2018-12-03T03:48:47.411Z,4.00
2018-12-03T03:51:18.263Z,3.78
2018-12-03T03:53:49.129Z,3.84
2018-12-03T03:56:22.081Z,3.76
2018-12-03T03:58:52.795Z,3.67
2018-12-03T04:01:26.036Z,3.41
2018-12-03T04:03:57.089Z,3.81
2018-12-03T04:06:29.623Z,3.75
2018-12-03T04:09:00.770Z,3.58
2018-12-03T04:11:32.899Z,3.63
2018-12-03T04:14:06.220Z,3.50
2018-12-03T04:16:38.697Z,3.39
2018-12-03T04:19:09.759Z,3.24
2018-12-03T04:21:40.350Z,3.34
2018-12-03T04:24:11.392Z,3.42
2018-12-03T04:26:44.740Z,3.60
2018-12-03T04:29:21.612Z,3.81
2018-12-03T04:31:55.259Z,3.43
2018-12-03T04:34:26.126Z,3.32
2018-12-03T04:36:56.810Z,3.49
2018-12-03T04:39:30.310Z,3.34
2018-12-03T04:42:01.079Z,3.19
2018-12-03T04:44:31.781Z,3.31
2018-12-03T04:47:02.843Z,3.66
2018-12-03T04:49:33.400Z,3.49
2018-12-03T04:52:04.006Z,3.44
2018-12-03T04:54:34.553Z,3.75
2018-12-03T04:57:07.986Z,3.52
2018-12-03T04:59:41.113Z,3.50
2018-12-03T05:02:12.367Z,3.60
2018-12-03T05:04:43.240Z,3.57
2018-12-03T05:07:15.826Z,3.53
2018-12-03T05:09:46.951Z,3.35
2018-12-03T05:12:21.150Z,3.45
2018-12-03T05:14:53.839Z,3.14
2018-12-03T05:17:24.645Z,3.12
2018-12-03T05:19:55.356Z,3.20
2018-12-03T05:22:25.957Z,3.52
2018-12-03T05:24:56.750Z,3.54
2018-12-03T05:27:29.967Z,3.39
2018-12-03T05:30:03.686Z,3.32
2018-12-03T05:32:38.139Z,3.58
2018-12-03T05:35:16.776Z,2.25
2018-12-03T05:37:54.049Z,3.53
2018-12-03T05:40:33.102Z,3.43
2018-12-03T05:43:05.569Z,3.63
2018-12-03T05:45:38.307Z,3.52
2018-12-03T05:48:11.284Z,3.63
2018-12-03T05:50:42.396Z,3.39
2018-12-03T05:53:13.280Z,3.10
2018-12-03T05:55:44.802Z,3.03
2018-12-03T05:58:15.820Z,3.28
2018-12-03T06:00:48.360Z,3.37
2018-12-03T06:03:19.255Z,3.40
2018-12-03T06:05:58.339Z,3.48
2018-12-03T06:08:29.326Z,3.41
2018-12-03T06:11:02.459Z,3.42
2018-12-03T06:13:35.477Z,3.90
2018-12-03T06:16:06.484Z,3.76
2018-12-03T06:18:40.808Z,3.55
2018-12-03T06:21:11.366Z,3.60
2018-12-03T06:23:41.923Z,3.73
2018-12-03T06:26:12.955Z,3.44
2018-12-03T06:28:48.259Z,3.47
2018-12-03T06:31:19.452Z,3.24
2018-12-03T06:33:50.619Z,2.57
2018-12-03T06:36:24.304Z,2.76
2018-12-03T06:38:57.494Z,2.75
2018-12-03T06:41:29.572Z,3.27
2018-12-03T06:44:01.791Z,3.38
2018-12-03T06:46:32.162Z,3.90
2018-12-03T06:49:03.024Z,3.75
2018-12-03T06:51:33.995Z,3.47
2018-12-03T06:54:04.421Z,3.81
2018-12-03T06:56:34.930Z,4.18
2018-12-03T06:59:06.207Z,3.52
2018-12-03T07:01:36.882Z,3.56
2018-12-03T07:04:07.878Z,3.00
2018-12-03T07:06:38.396Z,3.38
2018-12-03T07:09:11.700Z,3.47
2018-12-03T07:11:42.342Z,3.66
2018-12-03T07:14:16.750Z,3.83
2018-12-03T07:16:49.624Z,3.75
2018-12-03T07:19:20.725Z,3.93
2018-12-03T07:21:53.859Z,4.26
2018-12-03T07:24:24.860Z,4.10
2018-12-03T07:26:57.591Z,3.88
2018-12-03T07:29:29.008Z,3.79
2018-12-03T07:31:59.812Z,3.94
2018-12-03T07:34:38.502Z,3.90
2018-12-03T07:37:10.495Z,3.95
2018-12-03T07:39:42.824Z,4.23
2018-12-03T07:42:13.466Z,4.30
2018-12-03T07:44:44.906Z,4.36
2018-12-03T07:47:16.856Z,4.46
2018-12-03T07:49:48.912Z,4.70
2018-12-03T07:52:19.291Z,4.62
2018-12-03T07:54:50.417Z,4.96
2018-12-03T07:57:21.318Z,4.70
2018-12-03T07:59:51.979Z,4.97
2018-12-03T08:02:22.645Z,4.81
2018-12-03T08:04:52.931Z,4.79
2018-12-03T08:07:23.806Z,5.04
2018-12-03T08:09:54.675Z,5.09
2018-12-03T08:12:25.503Z,4.96
2018-12-03T08:14:56.339Z,5.10
2018-12-03T08:17:27.216Z,5.50
2018-12-03T08:19:57.870Z,5.41
2018-12-03T08:22:28.538Z,4.61
2018-12-03T08:25:01.707Z,4.48
2018-12-03T08:27:35.897Z,4.74
2018-12-03T08:30:11.763Z,4.34
2018-12-03T08:32:44.958Z,4.55
2018-12-03T08:35:17.448Z,4.60
2018-12-03T08:37:49.081Z,4.76
2018-12-03T08:40:20.646Z,4.58
2018-12-03T08:42:59.950Z,4.76
2018-12-03T08:45:32.940Z,4.76
2018-12-03T08:48:03.707Z,4.76
2018-12-03T08:50:42.792Z,4.54
2018-12-03T08:53:14.129Z,4.56
2018-12-03T08:55:48.974Z,4.03
2018-12-03T08:58:21.571Z,4.28
2018-12-03T09:00:52.412Z,4.40
2018-12-03T09:03:25.452Z,4.24
2018-12-03T09:05:57.507Z,4.12
2018-12-03T09:08:30.222Z,4.39
2018-12-03T09:11:02.252Z,4.33
2018-12-03T09:13:33.212Z,4.13
2018-12-03T09:16:05.455Z,4.40
2018-12-03T09:18:39.976Z,4.71
2018-12-03T09:21:16.407Z,4.72
2018-12-03T09:23:51.191Z,5.07
2018-12-03T09:26:22.955Z,4.87
2018-12-03T09:28:54.237Z,4.62
2018-12-03T09:31:26.735Z,4.63
2018-12-03T09:33:59.580Z,4.57
2018-12-03T09:36:30.571Z,4.28
2018-12-03T09:39:12.188Z,4.17
2018-12-03T09:41:45.443Z,3.83
2018-12-03T09:44:18.102Z,4.14
2018-12-03T09:46:48.985Z,3.92
2018-12-03T09:49:19.764Z,3.90
2018-12-03T09:51:55.586Z,4.34
2018-12-03T09:54:26.933Z,4.20
2018-12-03T09:56:57.282Z,4.29
2018-12-03T09:59:30.649Z,4.23
2018-12-03T10:02:02.843Z,4.38
2018-12-03T10:04:39.595Z,4.98
2018-12-03T10:07:18.748Z,4.83
2018-12-03T10:09:50.651Z,4.61
2018-12-03T10:12:21.914Z,4.61
2018-12-03T10:14:55.132Z,4.53
2018-12-03T10:17:26.049Z,4.19
2018-12-03T10:19:56.600Z,4.28
2018-12-03T10:22:27.587Z,4.51
2018-12-03T10:25:00.625Z,4.65
2018-12-03T10:27:31.880Z,4.49
2018-12-03T10:30:02.982Z,4.46
2018-12-03T10:32:38.838Z,4.96
2018-12-03T10:35:13.062Z,5.12
2018-12-03T10:37:46.595Z,5.00
2018-12-03T10:40:19.311Z,5.20
2018-12-03T10:42:50.773Z,5.43
2018-12-03T10:45:26.127Z,5.49
2018-12-03T10:47:57.164Z,5.04
2018-12-03T10:50:30.674Z,4.82
2018-12-03T10:53:02.950Z,4.78
2018-12-03T10:55:33.761Z,4.77
2018-12-03T10:58:06.997Z,4.76
2018-12-03T11:00:45.223Z,4.43
2018-12-03T11:03:27.905Z,4.65
2018-12-03T11:06:08.831Z,5.12
2018-12-03T11:08:41.803Z,5.44
2018-12-03T11:11:16.333Z,5.59
2018-12-03T11:13:52.049Z,5.83
2018-12-03T11:16:31.493Z,5.28
2018-12-03T11:19:11.232Z,5.83
2018-12-03T11:21:44.859Z,5.57
2018-12-03T11:24:17.840Z,5.87
2018-12-03T11:26:51.177Z,6.04
2018-12-03T11:29:23.160Z,6.06
2018-12-03T11:31:56.963Z,6.14
2018-12-03T11:34:27.667Z,6.59
2018-12-03T11:37:01.778Z,5.94
2018-12-03T11:39:58.678Z,5.90
2018-12-03T11:42:33.116Z,5.67
2018-12-03T11:45:08.071Z,5.94
2018-12-03T11:47:39.905Z,5.20
2018-12-03T11:50:12.471Z,6.09
2018-12-03T11:52:49.614Z,6.07
2018-12-03T11:55:20.853Z,7.04
2018-12-03T11:57:52.139Z,6.04
2018-12-03T12:00:29.260Z,6.00
2018-12-03T12:03:01.971Z,6.34
2018-12-03T12:05:33.715Z,6.71
2018-12-03T12:08:09.306Z,6.45
2018-12-03T12:10:39.865Z,6.22
2018-12-03T12:13:13.002Z,6.71
2018-12-03T12:15:45.990Z,7.07
2018-12-03T12:18:17.059Z,6.79
2018-12-03T12:20:55.415Z,6.56
2018-12-03T12:23:26.668Z,6.43
2018-12-03T12:25:57.981Z,7.07
2018-12-03T12:28:28.620Z,7.14
2018-12-03T12:30:58.879Z,7.48
2018-12-03T12:33:30.217Z,7.34
2018-12-03T12:36:00.872Z,7.19
2018-12-03T12:38:31.528Z,7.07
2018-12-03T12:41:02.094Z,6.24
2018-12-03T12:43:32.343Z,5.75
2018-12-03T12:46:09.658Z,6.41
2018-12-03T12:48:40.199Z,6.91
2018-12-03T12:51:13.769Z,7.61
2018-12-03T12:53:50.607Z,7.49
2018-12-03T12:56:24.047Z,7.33
2018-12-03T12:58:58.944Z,6.16
2018-12-03T13:01:30.887Z,5.27
2018-12-03T13:04:02.416Z,5.69
2018-12-03T13:06:33.287Z,5.78
2018-12-03T13:09:09.744Z,6.46
2018-12-03T13:11:41.456Z,6.62
2018-12-03T13:14:14.757Z,6.09
2018-12-03T13:16:47.839Z,5.58
2018-12-03T13:19:21.409Z,5.80
2018-12-03T13:21:52.972Z,5.96
2018-12-03T13:24:25.097Z,6.02
2018-12-03T13:26:56.189Z,5.92
2018-12-03T13:29:27.340Z,5.64
2018-12-03T13:32:01.083Z,6.50
2018-12-03T13:34:38.395Z,6.22
2018-12-03T13:37:14.366Z,6.21
2018-12-03T13:39:47.223Z,6.56
2018-12-03T13:42:18.510Z,6.63
2018-12-03T13:44:51.122Z,6.71
2018-12-03T13:47:25.334Z,6.89
2018-12-03T13:49:58.242Z,6.98
2018-12-03T13:52:34.749Z,7.06
2018-12-03T13:55:08.762Z,7.02
2018-12-03T13:57:39.842Z,6.96
2018-12-03T14:00:26.809Z,7.08
2018-12-03T14:03:09.359Z,7.62
2018-12-03T14:05:48.692Z,7.90
2018-12-03T14:10:05.117Z,7.26
2018-12-03T14:12:45.108Z,6.52
2018-12-03T14:15:34.299Z,5.79
2018-12-03T14:18:20.765Z,6.65
2018-12-03T14:20:53.955Z,6.77
2018-12-03T14:23:30.588Z,7.39
2018-12-03T14:26:02.617Z,6.40
2018-12-03T14:28:35.519Z,6.33
2018-12-03T14:31:07.279Z,6.07
2018-12-03T14:33:37.607Z,5.68
2018-12-03T14:36:13.965Z,5.26
2018-12-03T14:38:44.453Z,5.29
2018-12-03T14:41:17.625Z,5.61
2018-12-03T14:43:48.895Z,6.25
2018-12-03T14:46:22.938Z,6.59
2018-12-03T14:48:55.795Z,5.40
2018-12-03T14:51:27.287Z,5.69
2018-12-03T14:54:02.795Z,5.85
2018-12-03T14:56:33.768Z,5.90
2018-12-03T14:59:06.312Z,6.47
2018-12-03T15:01:38.318Z,6.50
2018-12-03T15:04:12.254Z,7.02
2018-12-03T15:06:48.781Z,6.96
2018-12-03T15:09:21.983Z,6.86
2018-12-03T15:11:55.650Z,7.30
2018-12-03T15:14:26.519Z,6.79
2018-12-03T15:16:57.497Z,6.27
2018-12-03T15:19:28.317Z,6.49
2018-12-03T15:21:58.872Z,6.34
2018-12-03T15:24:29.355Z,5.96
2018-12-03T15:27:00.199Z,5.65
2018-12-03T15:29:31.355Z,6.21
2018-12-03T15:32:04.670Z,6.82
2018-12-03T15:34:38.867Z,6.54
2018-12-03T15:37:12.455Z,6.16
2018-12-03T15:39:44.882Z,6.34
2018-12-03T15:42:17.511Z,6.08
2018-12-03T15:44:53.280Z,6.10
2018-12-03T15:47:25.660Z,6.29
2018-12-03T15:50:06.646Z,6.14
2018-12-03T15:52:38.963Z,5.97
2018-12-03T15:55:14.459Z,6.77
2018-12-03T15:57:57.806Z,6.23
2018-12-03T16:00:31.769Z,6.72
2018-12-03T16:03:04.929Z,6.44
2018-12-03T16:05:37.020Z,6.14
2018-12-03T16:08:09.800Z,6.57
2018-12-03T16:10:40.536Z,6.43
2018-12-03T16:13:14.246Z,6.80
2018-12-03T16:15:46.301Z,6.04
2018-12-03T16:18:18.082Z,5.82
2018-12-03T16:20:49.232Z,5.88
2018-12-03T16:23:20.215Z,5.44
2018-12-03T16:25:53.610Z,5.88
2018-12-03T16:28:27.329Z,6.02
2018-12-03T16:30:58.412Z,6.37
2018-12-03T16:33:31.744Z,6.01
2018-12-03T16:36:02.862Z,6.19
2018-12-03T16:38:35.840Z,5.93
2018-12-03T16:41:12.155Z,6.21
2018-12-03T16:43:42.962Z,5.65
2018-12-03T16:49:18.555Z,5.10
2018-12-03T16:51:50.958Z,5.25
2018-12-03T16:54:21.888Z,4.83
2018-12-03T16:56:55.349Z,4.93
2018-12-03T16:59:27.519Z,4.88
2018-12-03T17:02:03.130Z,4.53
2018-12-03T17:04:36.906Z,4.96
2018-12-03T17:07:15.684Z,4.82
2018-12-03T17:09:48.399Z,4.26
2018-12-03T17:12:23.924Z,4.09
2018-12-03T17:14:55.845Z,4.47
2018-12-03T17:17:27.759Z,4.82
2018-12-03T17:20:00.499Z,4.89
2018-12-03T17:22:45.171Z,4.65
2018-12-03T17:25:26.006Z,4.47
2018-12-03T17:28:02.233Z,4.78
2018-12-03T17:30:35.533Z,4.91
2018-12-03T17:33:06.643Z,5.04
2018-12-03T17:35:38.379Z,4.88
2018-12-03T17:38:11.830Z,4.79
2018-12-03T17:40:47.129Z,4.47
2018-12-03T17:43:24.559Z,4.69
2018-12-03T17:45:55.800Z,4.69
2018-12-03T17:48:27.449Z,4.90
2018-12-03T17:51:03.159Z,5.11
2018-12-03T17:53:37.387Z,4.38
2018-12-03T17:56:13.657Z,4.07
2018-12-03T17:58:46.845Z,4.87
2018-12-03T18:01:19.591Z,4.66
2018-12-03T18:03:51.312Z,4.51
2018-12-03T18:06:23.757Z,4.97
2018-12-03T18:08:54.621Z,4.55
2018-12-03T18:11:27.638Z,5.38
2018-12-03T18:13:59.132Z,5.52
2018-12-03T18:16:39.491Z,4.96
2018-12-03T18:19:12.135Z,5.30
2018-12-03T18:21:45.176Z,6.15
2018-12-03T18:24:24.597Z,6.07
2018-12-03T18:26:57.710Z,5.85
2018-12-03T18:29:28.416Z,6.34
2018-12-03T18:31:59.077Z,6.00
2018-12-03T18:34:29.788Z,5.61
2018-12-03T18:37:03.783Z,5.29
2018-12-03T18:39:36.954Z,5.13
2018-12-03T18:42:10.531Z,5.02
2018-12-03T18:44:44.017Z,4.95
2018-12-03T18:47:16.085Z,4.68
2018-12-03T18:49:49.857Z,4.62
2018-12-03T18:52:23.134Z,4.52
2018-12-03T18:54:55.009Z,4.23
2018-12-03T18:57:26.167Z,4.21
2018-12-03T18:59:58.902Z,4.69
2018-12-03T19:02:31.734Z,4.56
2018-12-03T19:05:05.418Z,4.69
2018-12-03T19:07:43.223Z,4.76
2018-12-03T19:10:26.201Z,4.57
2018-12-03T19:12:57.119Z,4.47
2018-12-03T19:15:34.502Z,4.54
2018-12-03T19:18:07.170Z,4.18
2018-12-03T19:20:46.701Z,4.42
2018-12-03T19:23:20.729Z,4.72
2018-12-03T19:25:58.970Z,5.00
2018-12-03T19:28:30.950Z,4.99
2018-12-03T19:31:05.107Z,4.69
2018-12-03T19:34:13.252Z,5.27
2018-12-03T19:36:44.819Z,4.92
2018-12-03T19:39:15.667Z,4.62
2018-12-03T19:41:52.482Z,4.52
2018-12-03T19:44:25.639Z,4.92
2018-12-03T19:47:01.895Z,4.80
2018-12-03T19:49:32.669Z,4.57
2018-12-03T19:52:04.122Z,5.43
2018-12-03T19:54:36.347Z,6.29
2018-12-03T19:57:10.087Z,6.71
2018-12-03T19:59:48.088Z,6.80
2018-12-03T20:02:20.583Z,6.75
2018-12-03T20:04:54.836Z,7.08
2018-12-03T20:07:27.718Z,6.61
2018-12-03T20:10:01.193Z,6.25
2018-12-03T20:12:34.167Z,5.48
2018-12-03T20:15:07.222Z,5.68
2018-12-03T20:17:41.152Z,5.09
2018-12-03T20:20:18.157Z,4.67
2018-12-03T20:22:57.796Z,4.72
2018-12-03T20:25:40.322Z,5.21
2018-12-03T20:28:16.023Z,6.04
2018-12-03T20:31:12.299Z,7.02
2018-12-03T20:34:01.643Z,7.57
2018-12-03T20:39:05.313Z,7.26
2018-12-03T20:41:44.798Z,5.74
2018-12-03T20:44:31.526Z,6.58
2018-12-03T20:47:26.782Z,5.66
2018-12-03T20:51:06.628Z,6.16
2018-12-03T20:53:46.496Z,6.87
2018-12-03T20:56:19.483Z,7.40
2018-12-03T20:58:50.304Z,7.00
2018-12-03T21:01:21.043Z,6.69
2018-12-03T21:03:55.756Z,7.21
2018-12-03T21:06:27.359Z,7.87
2018-12-03T21:09:00.054Z,7.56
2018-12-03T21:11:31.379Z,7.90
2018-12-03T21:14:06.300Z,8.11
2018-12-03T21:16:38.277Z,7.55
2018-12-03T21:19:18.369Z,7.33
2018-12-03T21:21:54.964Z,7.61
2018-12-03T21:24:26.205Z,7.50
2018-12-03T21:26:56.776Z,7.30
2018-12-03T21:29:27.895Z,7.55
2018-12-03T21:32:06.642Z,7.46
2018-12-03T21:34:37.568Z,7.82
2018-12-03T21:37:08.988Z,7.72
2018-12-03T21:39:48.045Z,7.71
2018-12-03T21:42:15.978Z,6.89
2018-12-03T21:44:46.899Z,7.19
2018-12-03T21:47:18.456Z,6.73
2018-12-03T21:49:50.436Z,6.82
2018-12-03T21:52:27.658Z,6.55
2018-12-03T21:55:00.872Z,6.72
2018-12-03T21:57:31.279Z,7.05
2018-12-03T22:00:06.628Z,7.06
2018-12-03T22:02:38.316Z,7.07
2018-12-03T22:05:11.647Z,7.53
2018-12-03T22:07:59.818Z,7.75
2018-12-03T22:10:31.570Z,8.27
2018-12-03T22:13:03.871Z,8.08
2018-12-03T22:15:37.340Z,8.31
2018-12-03T22:18:08.103Z,8.22
2018-12-03T22:20:38.703Z,7.35
2018-12-03T22:23:09.299Z,7.44
2018-12-03T22:25:39.949Z,8.11
2018-12-03T22:28:16.481Z,8.48
2018-12-03T22:30:50.271Z,7.98
2018-12-03T22:33:23.972Z,8.49
2018-12-03T22:35:56.780Z,8.60
2018-12-03T22:38:28.931Z,8.56
2018-12-03T22:41:01.880Z,8.77
2018-12-03T22:43:34.889Z,9.00
2018-12-03T22:46:09.786Z,9.23
2018-12-03T22:48:43.051Z,9.15
2018-12-03T22:51:17.078Z,9.19
2018-12-03T22:53:49.927Z,9.28
2018-12-03T22:56:21.262Z,9.37
2018-12-03T22:58:54.068Z,9.00
2018-12-03T23:01:26.836Z,9.14
2018-12-03T23:04:00.646Z,9.04
2018-12-03T23:06:34.072Z,9.06
2018-12-03T23:09:09.586Z,8.08
2018-12-03T23:11:48.895Z,7.66
2018-12-03T23:14:21.833Z,7.91
2018-12-03T23:16:53.567Z,8.40
2018-12-03T23:19:26.311Z,8.73
2018-12-03T23:21:58.322Z,8.64
2018-12-03T23:24:32.114Z,8.78
2018-12-03T23:27:05.312Z,9.12
2018-12-03T23:29:38.056Z,9.37
2018-12-03T23:32:11.334Z,9.04
2018-12-03T23:34:42.079Z,8.72
2018-12-03T23:37:13.899Z,9.08
2018-12-03T23:39:46.856Z,9.26
2018-12-03T23:42:19.404Z,8.88
2018-12-03T23:44:50.952Z,8.91
2018-12-03T23:47:25.444Z,9.10
2018-12-03T23:49:57.515Z,9.30
2018-12-03T23:52:28.250Z,9.03
2018-12-03T23:54:59.558Z,9.00
2018-12-03T23:57:31.369Z,8.62
